sensor_id;sensor_type;location;lat;lon;timestamp;P1;durP1;ratioP1;P2;durP2;ratioP2
21639;SDS011;10981;45.462;10.974;2023-11-18T00:01:32;6.00;;;3.13;;
21639;SDS011;10981;45.462;10.974;2023-11-18T00:04:01;8.20;;;3.40;;
21639;SDS011;10981;45.462;10.974;2023-11-18T00:06:30;11.57;;;3.85;;
21639;SDS011;10981;45.462;10.974;2023-11-18T00:08:58;5.07;;;3.08;;
21639;SDS011;10981;45.462;10.974;2023-11-18T00:11:26;6.53;;;3.38;;
21639;SDS011;10981;45.462;10.974;2023-11-18T00:13:54;6.93;;;2.70;;
21639;SDS011;10981;45.462;10.974;2023-11-18T00:16:23;5.18;;;2.58;;
21639;SDS011;10981;45.462;10.974;2023-11-18T00:18:51;6.70;;;3.00;;
21639;SDS011;10981;45.462;10.974;2023-11-18T00:21:20;6.43;;;3.42;;
21639;SDS011;10981;45.462;10.974;2023-11-18T00:23:52;6.80;;;3.10;;
21639;SDS011;10981;45.462;10.974;2023-11-18T00:26:20;4.20;;;2.40;;
21639;SDS011;10981;45.462;10.974;2023-11-18T00:28:56;7.07;;;2.72;;
21639;SDS011;10981;45.462;10.974;2023-11-18T00:31:24;7.10;;;2.78;;
21639;SDS011;10981;45.462;10.974;2023-11-18T00:33:52;4.45;;;2.75;;
21639;SDS011;10981;45.462;10.974;2023-11-18T00:36:21;4.22;;;2.53;;
21639;SDS011;10981;45.462;10.974;2023-11-18T00:38:49;5.13;;;2.63;;
21639;SDS011;10981;45.462;10.974;2023-11-18T00:41:17;12.32;;;2.85;;
21639;SDS011;10981;45.462;10.974;2023-11-18T00:43:45;5.47;;;2.60;;
21639;SDS011;10981;45.462;10.974;2023-11-18T00:46:14;6.07;;;2.55;;
21639;SDS011;10981;45.462;10.974;2023-11-18T00:48:42;5.15;;;2.95;;
21639;SDS011;10981;45.462;10.974;2023-11-18T00:51:11;6.68;;;2.78;;
21639;SDS011;10981;45.462;10.974;2023-11-18T00:53:39;6.75;;;2.78;;
21639;SDS011;10981;45.462;10.974;2023-11-18T00:56:12;4.97;;;2.10;;
21639;SDS011;10981;45.462;10.974;2023-11-18T00:58:45;4.97;;;2.75;;
21639;SDS011;10981;45.462;10.974;2023-11-18T01:01:13;7.57;;;2.60;;
21639;SDS011;10981;45.462;10.974;2023-11-18T01:03:45;5.55;;;2.25;;
21639;SDS011;10981;45.462;10.974;2023-11-18T01:06:13;2.30;;;1.92;;
21639;SDS011;10981;45.462;10.974;2023-11-18T01:08:44;3.83;;;2.35;;
21639;SDS011;10981;45.462;10.974;2023-11-18T01:11:16;5.35;;;2.40;;
21639;SDS011;10981;45.462;10.974;2023-11-18T01:13:49;4.80;;;2.97;;
21639;SDS011;10981;45.462;10.974;2023-11-18T01:16:18;5.97;;;2.60;;
21639;SDS011;10981;45.462;10.974;2023-11-18T01:18:47;3.80;;;2.30;;
21639;SDS011;10981;45.462;10.974;2023-11-18T01:21:16;2.88;;;2.20;;
21639;SDS011;10981;45.462;10.974;2023-11-18T01:23:44;3.90;;;2.50;;
21639;SDS011;10981;45.462;10.974;2023-11-18T01:26:12;5.85;;;2.28;;
21639;SDS011;10981;45.462;10.974;2023-11-18T01:28:42;6.57;;;2.47;;
21639;SDS011;10981;45.462;10.974;2023-11-18T01:31:14;8.88;;;2.55;;
21639;SDS011;10981;45.462;10.974;2023-11-18T01:33:43;3.75;;;2.10;;
21639;SDS011;10981;45.462;10.974;2023-11-18T01:36:12;6.82;;;2.33;;
21639;SDS011;10981;45.462;10.974;2023-11-18T01:38:40;5.20;;;3.20;;
21639;SDS011;10981;45.462;10.974;2023-11-18T01:41:08;5.47;;;2.22;;
21639;SDS011;10981;45.462;10.974;2023-11-18T01:43:37;5.25;;;2.30;;
21639;SDS011;10981;45.462;10.974;2023-11-18T01:46:07;6.30;;;1.95;;
21639;SDS011;10981;45.462;10.974;2023-11-18T01:48:37;4.72;;;1.90;;
21639;SDS011;10981;45.462;10.974;2023-11-18T01:51:07;3.33;;;2.00;;
21639;SDS011;10981;45.462;10.974;2023-11-18T01:53:39;3.53;;;2.00;;
21639;SDS011;10981;45.462;10.974;2023-11-18T01:56:09;3.13;;;1.77;;
21639;SDS011;10981;45.462;10.974;2023-11-18T01:58:38;2.10;;;1.60;;
21639;SDS011;10981;45.462;10.974;2023-11-18T02:01:08;1.98;;;1.60;;
21639;SDS011;10981;45.462;10.974;2023-11-18T02:03:37;4.60;;;2.15;;
21639;SDS011;10981;45.462;10.974;2023-11-18T02:06:08;3.28;;;2.10;;
21639;SDS011;10981;45.462;10.974;2023-11-18T02:08:37;2.25;;;1.85;;
21639;SDS011;10981;45.462;10.974;2023-11-18T02:11:52;4.22;;;2.10;;
21639;SDS011;10981;45.462;10.974;2023-11-18T02:14:17;2.30;;;1.77;;
21639;SDS011;10981;45.462;10.974;2023-11-18T02:16:47;3.25;;;2.03;;
21639;SDS011;10981;45.462;10.974;2023-11-18T02:21:52;4.55;;;2.10;;
21639;SDS011;10981;45.462;10.974;2023-11-18T02:24:28;3.47;;;2.30;;
21639;SDS011;10981;45.462;10.974;2023-11-18T02:26:58;4.07;;;2.45;;
21639;SDS011;10981;45.462;10.974;2023-11-18T02:29:28;7.25;;;1.95;;
21639;SDS011;10981;45.462;10.974;2023-11-18T02:32:06;3.38;;;2.13;;
21639;SDS011;10981;45.462;10.974;2023-11-18T02:34:45;3.90;;;1.98;;
21639;SDS011;10981;45.462;10.974;2023-11-18T02:37:40;6.28;;;2.10;;
21639;SDS011;10981;45.462;10.974;2023-11-18T02:40:24;8.93;;;1.80;;
21639;SDS011;10981;45.462;10.974;2023-11-18T02:45:27;3.65;;;1.98;;
21639;SDS011;10981;45.462;10.974;2023-11-18T02:47:55;3.25;;;1.95;;
21639;SDS011;10981;45.462;10.974;2023-11-18T02:50:25;4.00;;;2.05;;
21639;SDS011;10981;45.462;10.974;2023-11-18T02:52:54;2.65;;;1.70;;
21639;SDS011;10981;45.462;10.974;2023-11-18T02:55:23;2.95;;;1.85;;
21639;SDS011;10981;45.462;10.974;2023-11-18T02:57:53;4.30;;;2.22;;
21639;SDS011;10981;45.462;10.974;2023-11-18T03:00:21;3.67;;;2.05;;
21639;SDS011;10981;45.462;10.974;2023-11-18T03:02:50;3.20;;;1.67;;
21639;SDS011;10981;45.462;10.974;2023-11-18T03:05:20;2.92;;;1.92;;
21639;SDS011;10981;45.462;10.974;2023-11-18T03:07:49;2.47;;;1.65;;
21639;SDS011;10981;45.462;10.974;2023-11-18T03:10:21;2.88;;;1.70;;
21639;SDS011;10981;45.462;10.974;2023-11-18T03:12:50;4.03;;;1.80;;
21639;SDS011;10981;45.462;10.974;2023-11-18T03:15:22;4.93;;;2.03;;
21639;SDS011;10981;45.462;10.974;2023-11-18T03:17:51;4.40;;;2.00;;
21639;SDS011;10981;45.462;10.974;2023-11-18T03:20:21;3.67;;;2.17;;
21639;SDS011;10981;45.462;10.974;2023-11-18T03:22:50;5.47;;;2.60;;
21639;SDS011;10981;45.462;10.974;2023-11-18T03:25:20;3.85;;;2.45;;
21639;SDS011;10981;45.462;10.974;2023-11-18T03:27:49;2.92;;;1.95;;
21639;SDS011;10981;45.462;10.974;2023-11-18T03:30:17;2.67;;;1.80;;
21639;SDS011;10981;45.462;10.974;2023-11-18T03:32:46;5.78;;;2.08;;
21639;SDS011;10981;45.462;10.974;2023-11-18T03:35:14;2.17;;;1.67;;
21639;SDS011;10981;45.462;10.974;2023-11-18T03:37:42;5.68;;;2.10;;
21639;SDS011;10981;45.462;10.974;2023-11-18T03:40:12;3.92;;;2.00;;
21639;SDS011;10981;45.462;10.974;2023-11-18T03:42:41;2.97;;;1.92;;
21639;SDS011;10981;45.462;10.974;2023-11-18T03:45:10;4.05;;;2.00;;
21639;SDS011;10981;45.462;10.974;2023-11-18T03:47:38;2.40;;;1.70;;
21639;SDS011;10981;45.462;10.974;2023-11-18T03:50:07;3.55;;;2.67;;
21639;SDS011;10981;45.462;10.974;2023-11-18T03:52:36;3.95;;;1.90;;
21639;SDS011;10981;45.462;10.974;2023-11-18T03:55:08;2.88;;;1.90;;
21639;SDS011;10981;45.462;10.974;2023-11-18T03:57:36;2.97;;;1.90;;
21639;SDS011;10981;45.462;10.974;2023-11-18T04:00:05;3.78;;;2.17;;
21639;SDS011;10981;45.462;10.974;2023-11-18T04:02:36;5.38;;;1.92;;
21639;SDS011;10981;45.462;10.974;2023-11-18T04:05:07;3.78;;;2.33;;
21639;SDS011;10981;45.462;10.974;2023-11-18T04:07:36;3.35;;;2.13;;
21639;SDS011;10981;45.462;10.974;2023-11-18T04:10:04;4.47;;;2.22;;
21639;SDS011;10981;45.462;10.974;2023-11-18T04:12:34;7.45;;;2.80;;
21639;SDS011;10981;45.462;10.974;2023-11-18T04:15:02;4.18;;;2.55;;
21639;SDS011;10981;45.462;10.974;2023-11-18T04:17:31;3.47;;;2.47;;
21639;SDS011;10981;45.462;10.974;2023-11-18T04:20:01;4.38;;;2.50;;
21639;SDS011;10981;45.462;10.974;2023-11-18T04:22:32;4.22;;;2.50;;
21639;SDS011;10981;45.462;10.974;2023-11-18T04:25:00;4.25;;;2.20;;
21639;SDS011;10981;45.462;10.974;2023-11-18T04:27:28;4.43;;;2.08;;
21639;SDS011;10981;45.462;10.974;2023-11-18T04:29:56;2.42;;;1.60;;
21639;SDS011;10981;45.462;10.974;2023-11-18T04:32:25;4.57;;;2.08;;
21639;SDS011;10981;45.462;10.974;2023-11-18T04:34:54;2.90;;;1.58;;
21639;SDS011;10981;45.462;10.974;2023-11-18T04:37:25;3.70;;;1.70;;
21639;SDS011;10981;45.462;10.974;2023-11-18T04:39:53;3.28;;;1.67;;
21639;SDS011;10981;45.462;10.974;2023-11-18T04:42:22;3.60;;;1.45;;
21639;SDS011;10981;45.462;10.974;2023-11-18T04:44:50;2.20;;;1.50;;
21639;SDS011;10981;45.462;10.974;2023-11-18T04:47:19;3.42;;;1.70;;
21639;SDS011;10981;45.462;10.974;2023-11-18T04:49:47;3.15;;;1.90;;
21639;SDS011;10981;45.462;10.974;2023-11-18T04:52:15;2.20;;;1.48;;
21639;SDS011;10981;45.462;10.974;2023-11-18T04:54:43;1.80;;;1.70;;
21639;SDS011;10981;45.462;10.974;2023-11-18T04:57:15;3.47;;;1.60;;
21639;SDS011;10981;45.462;10.974;2023-11-18T04:59:44;2.38;;;1.40;;
21639;SDS011;10981;45.462;10.974;2023-11-18T05:02:12;3.40;;;2.00;;
21639;SDS011;10981;45.462;10.974;2023-11-18T05:04:40;1.80;;;1.42;;
21639;SDS011;10981;45.462;10.974;2023-11-18T05:07:08;4.80;;;2.25;;
21639;SDS011;10981;45.462;10.974;2023-11-18T05:09:36;3.67;;;1.90;;
21639;SDS011;10981;45.462;10.974;2023-11-18T05:12:05;5.60;;;1.95;;
21639;SDS011;10981;45.462;10.974;2023-11-18T05:14:34;3.03;;;2.10;;
21639;SDS011;10981;45.462;10.974;2023-11-18T05:17:02;4.65;;;2.03;;
21639;SDS011;10981;45.462;10.974;2023-11-18T05:19:33;8.65;;;2.50;;
21639;SDS011;10981;45.462;10.974;2023-11-18T05:22:02;5.13;;;2.05;;
21639;SDS011;10981;45.462;10.974;2023-11-18T05:24:31;7.25;;;2.10;;
21639;SDS011;10981;45.462;10.974;2023-11-18T05:26:59;6.07;;;2.08;;
21639;SDS011;10981;45.462;10.974;2023-11-18T05:29:28;4.47;;;2.50;;
21639;SDS011;10981;45.462;10.974;2023-11-18T05:31:57;5.25;;;2.13;;
21639;SDS011;10981;45.462;10.974;2023-11-18T05:34:25;3.22;;;1.90;;
21639;SDS011;10981;45.462;10.974;2023-11-18T05:36:56;10.55;;;2.40;;
21639;SDS011;10981;45.462;10.974;2023-11-18T05:39:26;5.07;;;2.20;;
21639;SDS011;10981;45.462;10.974;2023-11-18T05:41:57;3.55;;;2.75;;
21639;SDS011;10981;45.462;10.974;2023-11-18T05:44:26;3.38;;;2.40;;
21639;SDS011;10981;45.462;10.974;2023-11-18T05:46:57;5.13;;;2.30;;
21639;SDS011;10981;45.462;10.974;2023-11-18T05:49:26;5.43;;;2.60;;
21639;SDS011;10981;45.462;10.974;2023-11-18T05:51:54;3.53;;;2.53;;
21639;SDS011;10981;45.462;10.974;2023-11-18T05:54:23;7.55;;;3.00;;
21639;SDS011;10981;45.462;10.974;2023-11-18T05:56:51;5.57;;;3.20;;
21639;SDS011;10981;45.462;10.974;2023-11-18T05:59:26;7.90;;;3.08;;
21639;SDS011;10981;45.462;10.974;2023-11-18T06:01:54;5.93;;;2.92;;
21639;SDS011;10981;45.462;10.974;2023-11-18T06:04:26;8.00;;;3.08;;
21639;SDS011;10981;45.462;10.974;2023-11-18T06:06:55;7.25;;;2.63;;
21639;SDS011;10981;45.462;10.974;2023-11-18T06:09:23;3.55;;;2.20;;
21639;SDS011;10981;45.462;10.974;2023-11-18T06:11:52;3.85;;;2.92;;
21639;SDS011;10981;45.462;10.974;2023-11-18T06:14:21;7.45;;;2.70;;
21639;SDS011;10981;45.462;10.974;2023-11-18T06:16:50;3.75;;;2.35;;
21639;SDS011;10981;45.462;10.974;2023-11-18T06:19:19;6.35;;;2.97;;
21639;SDS011;10981;45.462;10.974;2023-11-18T06:21:48;7.70;;;2.17;;
21639;SDS011;10981;45.462;10.974;2023-11-18T06:24:16;5.18;;;2.22;;
21639;SDS011;10981;45.462;10.974;2023-11-18T06:26:45;4.18;;;2.20;;
21639;SDS011;10981;45.462;10.974;2023-11-18T06:29:16;4.50;;;2.15;;
21639;SDS011;10981;45.462;10.974;2023-11-18T06:31:44;6.25;;;2.22;;
21639;SDS011;10981;45.462;10.974;2023-11-18T06:34:13;4.03;;;1.85;;
21639;SDS011;10981;45.462;10.974;2023-11-18T06:36:41;5.32;;;1.90;;
21639;SDS011;10981;45.462;10.974;2023-11-18T06:39:09;3.13;;;2.22;;
21639;SDS011;10981;45.462;10.974;2023-11-18T06:41:40;5.05;;;2.00;;
21639;SDS011;10981;45.462;10.974;2023-11-18T06:44:16;4.30;;;1.73;;
21639;SDS011;10981;45.462;10.974;2023-11-18T06:46:51;8.18;;;1.85;;
21639;SDS011;10981;45.462;10.974;2023-11-18T06:49:19;3.08;;;1.55;;
21639;SDS011;10981;45.462;10.974;2023-11-18T06:51:47;5.40;;;2.17;;
21639;SDS011;10981;45.462;10.974;2023-11-18T06:54:15;5.85;;;1.50;;
21639;SDS011;10981;45.462;10.974;2023-11-18T06:56:44;2.65;;;1.83;;
21639;SDS011;10981;45.462;10.974;2023-11-18T06:59:13;4.03;;;1.92;;
21639;SDS011;10981;45.462;10.974;2023-11-18T07:01:43;5.30;;;1.67;;
21639;SDS011;10981;45.462;10.974;2023-11-18T07:04:13;3.97;;;2.05;;
21639;SDS011;10981;45.462;10.974;2023-11-18T07:06:42;7.35;;;2.00;;
21639;SDS011;10981;45.462;10.974;2023-11-18T07:09:12;9.23;;;2.30;;
21639;SDS011;10981;45.462;10.974;2023-11-18T07:11:44;6.97;;;3.73;;
21639;SDS011;10981;45.462;10.974;2023-11-18T07:14:14;5.18;;;3.00;;
21639;SDS011;10981;45.462;10.974;2023-11-18T07:16:43;4.28;;;2.90;;
21639;SDS011;10981;45.462;10.974;2023-11-18T07:19:12;3.80;;;1.92;;
21639;SDS011;10981;45.462;10.974;2023-11-18T07:21:50;2.97;;;1.73;;
21639;SDS011;10981;45.462;10.974;2023-11-18T07:24:19;15.52;;;4.53;;
21639;SDS011;10981;45.462;10.974;2023-11-18T07:26:48;11.18;;;4.05;;
21639;SDS011;10981;45.462;10.974;2023-11-18T07:29:18;17.88;;;4.40;;
21639;SDS011;10981;45.462;10.974;2023-11-18T07:31:46;10.73;;;4.05;;
21639;SDS011;10981;45.462;10.974;2023-11-18T07:34:16;10.07;;;3.65;;
21639;SDS011;10981;45.462;10.974;2023-11-18T07:36:45;9.32;;;3.58;;
21639;SDS011;10981;45.462;10.974;2023-11-18T07:39:14;11.02;;;4.05;;
21639;SDS011;10981;45.462;10.974;2023-11-18T07:41:43;12.98;;;3.55;;
21639;SDS011;10981;45.462;10.974;2023-11-18T07:44:11;10.93;;;3.95;;
21639;SDS011;10981;45.462;10.974;2023-11-18T07:46:40;12.10;;;4.53;;
21639;SDS011;10981;45.462;10.974;2023-11-18T07:49:10;8.32;;;3.47;;
21639;SDS011;10981;45.462;10.974;2023-11-18T07:51:38;8.07;;;3.17;;
21639;SDS011;10981;45.462;10.974;2023-11-18T07:54:09;8.77;;;3.25;;
21639;SDS011;10981;45.462;10.974;2023-11-18T07:56:37;7.10;;;3.67;;
21639;SDS011;10981;45.462;10.974;2023-11-18T07:59:08;7.47;;;3.50;;
21639;SDS011;10981;45.462;10.974;2023-11-18T08:01:36;9.52;;;3.80;;
21639;SDS011;10981;45.462;10.974;2023-11-18T08:04:07;7.50;;;3.92;;
21639;SDS011;10981;45.462;10.974;2023-11-18T08:06:35;12.18;;;3.88;;
21639;SDS011;10981;45.462;10.974;2023-11-18T08:09:04;11.05;;;4.38;;
21639;SDS011;10981;45.462;10.974;2023-11-18T08:14:08;10.60;;;4.65;;
21639;SDS011;10981;45.462;10.974;2023-11-18T08:16:36;10.63;;;4.07;;
21639;SDS011;10981;45.462;10.974;2023-11-18T08:19:04;15.10;;;6.00;;
21639;SDS011;10981;45.462;10.974;2023-11-18T08:21:35;16.60;;;5.10;;
21639;SDS011;10981;45.462;10.974;2023-11-18T08:24:06;10.50;;;4.32;;
21639;SDS011;10981;45.462;10.974;2023-11-18T08:26:35;8.82;;;4.10;;
21639;SDS011;10981;45.462;10.974;2023-11-18T08:29:05;9.05;;;4.47;;
21639;SDS011;10981;45.462;10.974;2023-11-18T08:31:35;9.70;;;4.40;;
21639;SDS011;10981;45.462;10.974;2023-11-18T08:34:06;11.52;;;4.93;;
21639;SDS011;10981;45.462;10.974;2023-11-18T08:36:37;10.23;;;4.70;;
21639;SDS011;10981;45.462;10.974;2023-11-18T08:39:05;13.73;;;4.43;;
21639;SDS011;10981;45.462;10.974;2023-11-18T08:41:38;7.47;;;4.07;;
21639;SDS011;10981;45.462;10.974;2023-11-18T08:44:06;7.80;;;3.47;;
21639;SDS011;10981;45.462;10.974;2023-11-18T08:49:19;7.57;;;3.22;;
21639;SDS011;10981;45.462;10.974;2023-11-18T08:51:50;5.20;;;3.45;;
21639;SDS011;10981;45.462;10.974;2023-11-18T08:54:24;5.60;;;3.50;;
21639;SDS011;10981;45.462;10.974;2023-11-18T08:57:05;11.38;;;4.88;;
21639;SDS011;10981;45.462;10.974;2023-11-18T08:59:50;8.82;;;3.70;;
21639;SDS011;10981;45.462;10.974;2023-11-18T09:02:19;28.40;;;15.60;;
21639;SDS011;10981;45.462;10.974;2023-11-18T09:04:50;31.05;;;17.15;;
21639;SDS011;10981;45.462;10.974;2023-11-18T09:07:22;20.13;;;11.80;;
21639;SDS011;10981;45.462;10.974;2023-11-18T09:09:51;17.42;;;8.82;;
21639;SDS011;10981;45.462;10.974;2023-11-18T09:12:19;13.73;;;6.95;;
21639;SDS011;10981;45.462;10.974;2023-11-18T09:14:48;18.20;;;7.85;;
21639;SDS011;10981;45.462;10.974;2023-11-18T09:17:19;31.70;;;11.70;;
21639;SDS011;10981;45.462;10.974;2023-11-18T09:19:49;52.05;;;12.68;;
21639;SDS011;10981;45.462;10.974;2023-11-18T09:22:20;31.35;;;11.32;;
21639;SDS011;10981;45.462;10.974;2023-11-18T09:24:49;16.48;;;5.47;;
21639;SDS011;10981;45.462;10.974;2023-11-18T09:27:17;6.90;;;3.60;;
21639;SDS011;10981;45.462;10.974;2023-11-18T09:29:45;6.65;;;3.10;;
21639;SDS011;10981;45.462;10.974;2023-11-18T09:32:14;8.18;;;2.97;;
21639;SDS011;10981;45.462;10.974;2023-11-18T09:34:42;7.60;;;3.10;;
21639;SDS011;10981;45.462;10.974;2023-11-18T09:37:12;7.40;;;2.85;;
21639;SDS011;10981;45.462;10.974;2023-11-18T09:39:42;6.22;;;2.97;;
21639;SDS011;10981;45.462;10.974;2023-11-18T09:42:13;3.92;;;2.38;;
21639;SDS011;10981;45.462;10.974;2023-11-18T09:44:46;7.20;;;3.70;;
21639;SDS011;10981;45.462;10.974;2023-11-18T09:47:15;4.45;;;3.58;;
21639;SDS011;10981;45.462;10.974;2023-11-18T09:49:52;7.05;;;5.13;;
21639;SDS011;10981;45.462;10.974;2023-11-18T09:52:24;5.93;;;3.50;;
21639;SDS011;10981;45.462;10.974;2023-11-18T09:57:32;7.60;;;3.70;;
21639;SDS011;10981;45.462;10.974;2023-11-18T10:00:08;6.93;;;3.70;;
21639;SDS011;10981;45.462;10.974;2023-11-18T10:02:50;7.32;;;4.38;;
21639;SDS011;10981;45.462;10.974;2023-11-18T10:05:20;11.50;;;4.47;;
21639;SDS011;10981;45.462;10.974;2023-11-18T10:07:50;10.93;;;4.85;;
21639;SDS011;10981;45.462;10.974;2023-11-18T10:10:19;10.00;;;4.82;;
21639;SDS011;10981;45.462;10.974;2023-11-18T10:12:52;14.68;;;6.28;;
21639;SDS011;10981;45.462;10.974;2023-11-18T10:15:24;12.95;;;6.32;;
21639;SDS011;10981;45.462;10.974;2023-11-18T10:17:54;15.10;;;7.60;;
21639;SDS011;10981;45.462;10.974;2023-11-18T10:20:43;12.23;;;7.60;;
21639;SDS011;10981;45.462;10.974;2023-11-18T10:23:16;12.57;;;7.75;;
21639;SDS011;10981;45.462;10.974;2023-11-18T10:25:49;10.75;;;6.70;;
21639;SDS011;10981;45.462;10.974;2023-11-18T10:28:24;11.32;;;6.18;;
21639;SDS011;10981;45.462;10.974;2023-11-18T10:30:55;13.05;;;6.22;;
21639;SDS011;10981;45.462;10.974;2023-11-18T10:33:42;13.13;;;6.47;;
21639;SDS011;10981;45.462;10.974;2023-11-18T10:36:17;12.93;;;6.80;;
21639;SDS011;10981;45.462;10.974;2023-11-18T10:38:50;11.40;;;5.68;;
21639;SDS011;10981;45.462;10.974;2023-11-18T10:41:23;9.98;;;5.45;;
21639;SDS011;10981;45.462;10.974;2023-11-18T10:44:06;10.35;;;5.38;;
21639;SDS011;10981;45.462;10.974;2023-11-18T10:46:50;11.07;;;4.65;;
21639;SDS011;10981;45.462;10.974;2023-11-18T10:49:20;11.15;;;5.40;;
21639;SDS011;10981;45.462;10.974;2023-11-18T10:51:50;13.05;;;7.15;;
21639;SDS011;10981;45.462;10.974;2023-11-18T10:54:19;9.85;;;5.22;;
21639;SDS011;10981;45.462;10.974;2023-11-18T10:56:48;11.55;;;5.70;;
21639;SDS011;10981;45.462;10.974;2023-11-18T10:59:17;9.80;;;4.90;;
21639;SDS011;10981;45.462;10.974;2023-11-18T11:01:46;12.55;;;5.05;;
21639;SDS011;10981;45.462;10.974;2023-11-18T11:04:17;12.02;;;6.07;;
21639;SDS011;10981;45.462;10.974;2023-11-18T11:06:50;13.23;;;6.13;;
21639;SDS011;10981;45.462;10.974;2023-11-18T11:09:24;17.15;;;7.15;;
21639;SDS011;10981;45.462;10.974;2023-11-18T11:11:56;18.40;;;7.63;;
21639;SDS011;10981;45.462;10.974;2023-11-18T11:14:35;15.90;;;8.75;;
21639;SDS011;10981;45.462;10.974;2023-11-18T11:17:12;21.63;;;9.00;;
21639;SDS011;10981;45.462;10.974;2023-11-18T11:19:59;20.00;;;10.05;;
21639;SDS011;10981;45.462;10.974;2023-11-18T11:22:52;21.42;;;10.50;;
21639;SDS011;10981;45.462;10.974;2023-11-18T11:28:29;21.42;;;9.10;;
21639;SDS011;10981;45.462;10.974;2023-11-18T11:31:29;19.48;;;9.63;;
21639;SDS011;10981;45.462;10.974;2023-11-18T11:34:06;14.50;;;7.95;;
21639;SDS011;10981;45.462;10.974;2023-11-18T11:36:46;14.23;;;7.25;;
21639;SDS011;10981;45.462;10.974;2023-11-18T11:39:18;11.75;;;6.20;;
21639;SDS011;10981;45.462;10.974;2023-11-18T11:41:53;19.10;;;8.30;;
21639;SDS011;10981;45.462;10.974;2023-11-18T11:44:23;17.77;;;8.07;;
21639;SDS011;10981;45.462;10.974;2023-11-18T11:46:58;14.88;;;7.15;;
21639;SDS011;10981;45.462;10.974;2023-11-18T11:49:41;13.38;;;5.78;;
21639;SDS011;10981;45.462;10.974;2023-11-18T11:52:49;9.98;;;6.15;;
21639;SDS011;10981;45.462;10.974;2023-11-18T11:58:34;13.32;;;5.70;;
21639;SDS011;10981;45.462;10.974;2023-11-18T12:01:32;14.55;;;5.95;;
21639;SDS011;10981;45.462;10.974;2023-11-18T12:04:05;13.75;;;5.93;;
21639;SDS011;10981;45.462;10.974;2023-11-18T12:06:41;16.60;;;6.25;;
21639;SDS011;10981;45.462;10.974;2023-11-18T12:09:11;11.68;;;6.25;;
21639;SDS011;10981;45.462;10.974;2023-11-18T12:11:47;12.95;;;7.22;;
21639;SDS011;10981;45.462;10.974;2023-11-18T12:14:16;14.23;;;6.38;;
21639;SDS011;10981;45.462;10.974;2023-11-18T12:19:39;15.57;;;7.22;;
21639;SDS011;10981;45.462;10.974;2023-11-18T12:22:18;15.55;;;6.43;;
21639;SDS011;10981;45.462;10.974;2023-11-18T12:27:43;16.65;;;7.40;;
21639;SDS011;10981;45.462;10.974;2023-11-18T12:32:57;15.45;;;7.50;;
21639;SDS011;10981;45.462;10.974;2023-11-18T12:35:42;14.25;;;6.60;;
21639;SDS011;10981;45.462;10.974;2023-11-18T12:44:11;15.43;;;6.60;;
21639;SDS011;10981;45.462;10.974;2023-11-18T12:46:55;15.32;;;7.03;;
21639;SDS011;10981;45.462;10.974;2023-11-18T12:49:44;13.38;;;6.60;;
21639;SDS011;10981;45.462;10.974;2023-11-18T12:52:21;14.75;;;7.28;;
21639;SDS011;10981;45.462;10.974;2023-11-18T12:54:51;12.85;;;6.75;;
21639;SDS011;10981;45.462;10.974;2023-11-18T12:57:26;13.85;;;7.40;;
21639;SDS011;10981;45.462;10.974;2023-11-18T12:59:59;15.97;;;7.20;;
21639;SDS011;10981;45.462;10.974;2023-11-18T13:02:31;16.97;;;7.37;;
21639;SDS011;10981;45.462;10.974;2023-11-18T13:05:03;15.57;;;6.95;;
21639;SDS011;10981;45.462;10.974;2023-11-18T13:07:36;12.80;;;6.15;;
21639;SDS011;10981;45.462;10.974;2023-11-18T13:10:05;11.82;;;5.95;;
21639;SDS011;10981;45.462;10.974;2023-11-18T13:12:34;13.52;;;6.57;;
21639;SDS011;10981;45.462;10.974;2023-11-18T13:15:03;12.52;;;6.60;;
21639;SDS011;10981;45.462;10.974;2023-11-18T13:17:35;15.65;;;6.72;;
21639;SDS011;10981;45.462;10.974;2023-11-18T13:20:12;11.65;;;5.03;;
21639;SDS011;10981;45.462;10.974;2023-11-18T13:22:42;9.90;;;5.00;;
21639;SDS011;10981;45.462;10.974;2023-11-18T13:25:14;10.25;;;4.85;;
21639;SDS011;10981;45.462;10.974;2023-11-18T13:27:45;13.20;;;5.20;;
21639;SDS011;10981;45.462;10.974;2023-11-18T13:30:13;12.07;;;5.20;;
21639;SDS011;10981;45.462;10.974;2023-11-18T13:32:44;11.88;;;5.13;;
21639;SDS011;10981;45.462;10.974;2023-11-18T13:35:13;10.65;;;5.35;;
21639;SDS011;10981;45.462;10.974;2023-11-18T13:37:46;13.00;;;5.45;;
21639;SDS011;10981;45.462;10.974;2023-11-18T13:40:16;17.42;;;8.82;;
21639;SDS011;10981;45.462;10.974;2023-11-18T13:42:47;11.32;;;5.90;;
21639;SDS011;10981;45.462;10.974;2023-11-18T13:45:28;8.70;;;4.55;;
21639;SDS011;10981;45.462;10.974;2023-11-18T13:48:04;11.60;;;5.95;;
21639;SDS011;10981;45.462;10.974;2023-11-18T13:50:36;10.65;;;5.55;;
21639;SDS011;10981;45.462;10.974;2023-11-18T13:53:07;11.85;;;5.93;;
21639;SDS011;10981;45.462;10.974;2023-11-18T13:55:35;6.75;;;2.17;;
21639;SDS011;10981;45.462;10.974;2023-11-18T13:58:06;2.45;;;1.30;;
21639;SDS011;10981;45.462;10.974;2023-11-18T14:00:34;3.20;;;1.08;;
21639;SDS011;10981;45.462;10.974;2023-11-18T14:03:03;2.83;;;0.98;;
21639;SDS011;10981;45.462;10.974;2023-11-18T14:05:34;1.65;;;1.33;;
21639;SDS011;10981;45.462;10.974;2023-11-18T14:08:03;1.48;;;0.70;;
21639;SDS011;10981;45.462;10.974;2023-11-18T14:10:37;1.10;;;0.70;;
21639;SDS011;10981;45.462;10.974;2023-11-18T14:13:08;1.45;;;0.77;;
21639;SDS011;10981;45.462;10.974;2023-11-18T14:15:40;0.80;;;0.80;;
21639;SDS011;10981;45.462;10.974;2023-11-18T14:18:11;4.38;;;1.25;;
21639;SDS011;10981;45.462;10.974;2023-11-18T14:20:41;2.53;;;1.40;;
21639;SDS011;10981;45.462;10.974;2023-11-18T14:23:09;2.75;;;1.20;;
21639;SDS011;10981;45.462;10.974;2023-11-18T14:25:38;3.25;;;1.70;;
21639;SDS011;10981;45.462;10.974;2023-11-18T14:28:06;2.65;;;1.55;;
21639;SDS011;10981;45.462;10.974;2023-11-18T14:30:38;2.33;;;1.42;;
21639;SDS011;10981;45.462;10.974;2023-11-18T14:33:09;3.25;;;1.88;;
21639;SDS011;10981;45.462;10.974;2023-11-18T14:35:37;3.10;;;1.63;;
21639;SDS011;10981;45.462;10.974;2023-11-18T14:38:07;2.75;;;1.65;;
21639;SDS011;10981;45.462;10.974;2023-11-18T14:40:35;4.07;;;1.98;;
21639;SDS011;10981;45.462;10.974;2023-11-18T14:43:05;3.28;;;1.60;;
21639;SDS011;10981;45.462;10.974;2023-11-18T14:45:34;2.80;;;1.50;;
21639;SDS011;10981;45.462;10.974;2023-11-18T14:48:03;2.75;;;1.58;;
21639;SDS011;10981;45.462;10.974;2023-11-18T14:50:32;1.73;;;1.45;;
21639;SDS011;10981;45.462;10.974;2023-11-18T14:53:02;2.45;;;1.20;;
21639;SDS011;10981;45.462;10.974;2023-11-18T14:55:31;3.97;;;1.48;;
21639;SDS011;10981;45.462;10.974;2023-11-18T14:58:04;2.70;;;1.73;;
21639;SDS011;10981;45.462;10.974;2023-11-18T15:00:34;2.53;;;1.17;;
21639;SDS011;10981;45.462;10.974;2023-11-18T15:03:04;2.60;;;1.55;;
21639;SDS011;10981;45.462;10.974;2023-11-18T15:05:34;2.33;;;1.73;;
21639;SDS011;10981;45.462;10.974;2023-11-18T15:08:02;4.68;;;1.65;;
21639;SDS011;10981;45.462;10.974;2023-11-18T15:10:36;5.55;;;1.63;;
21639;SDS011;10981;45.462;10.974;2023-11-18T15:13:04;3.80;;;1.40;;
21639;SDS011;10981;45.462;10.974;2023-11-18T15:15:32;2.95;;;1.80;;
21639;SDS011;10981;45.462;10.974;2023-11-18T15:18:04;6.38;;;1.80;;
21639;SDS011;10981;45.462;10.974;2023-11-18T15:20:36;4.28;;;1.73;;
21639;SDS011;10981;45.462;10.974;2023-11-18T15:23:05;6.75;;;2.20;;
21639;SDS011;10981;45.462;10.974;2023-11-18T15:25:34;9.80;;;3.60;;
21639;SDS011;10981;45.462;10.974;2023-11-18T15:28:03;8.05;;;4.47;;